Terminal Aerodrome Forecast
Issued by NWS Shreveport, LA

Home | Current Version | Previous Version | Text Only | Print | Product List | Glossary On
Versions: 1 2 3 4 5 6 7 8 9 10 11 12 13 14 15
000
FTUS44 KSHV 281137
TAFTXK
TAF
KTXK 281137Z 2812/2912 23007KT P6SM VCTS OVC070CB
      TEMPO 2812/2816 5SM -TSRA BR OVC035CB
     FM281600 24007KT P6SM VCTS OVC050CB
      TEMPO 2816/2820 3SM -TSRA BR BKN035CB
     FM282000 22008KT P6SM VCTS BKN045CB OVC120
     FM290200 19004KT P6SM BKN150 BKN250=

USA.gov is the U.S. government's official web portal to all federal, state and local government web resources and services.